sensor_id;sensor_type;location;lat;lon;timestamp;P1;durP1;ratioP1;P2;durP2;ratioP2
28587;SDS011;15787;49.662;10.162;2023-04-23T00:01:46;5.22;;;2.42;;
28587;SDS011;15787;49.662;10.162;2023-04-23T00:04:20;3.55;;;2.47;;
28587;SDS011;15787;49.662;10.162;2023-04-23T00:06:56;3.45;;;2.50;;
28587;SDS011;15787;49.662;10.162;2023-04-23T00:09:32;5.22;;;2.80;;
28587;SDS011;15787;49.662;10.162;2023-04-23T00:12:05;5.03;;;2.70;;
28587;SDS011;15787;49.662;10.162;2023-04-23T00:14:39;5.10;;;2.58;;
28587;SDS011;15787;49.662;10.162;2023-04-23T00:17:13;3.80;;;2.60;;
28587;SDS011;15787;49.662;10.162;2023-04-23T00:19:46;4.72;;;2.83;;
28587;SDS011;15787;49.662;10.162;2023-04-23T00:22:20;4.32;;;2.53;;
28587;SDS011;15787;49.662;10.162;2023-04-23T00:24:53;4.00;;;2.72;;
28587;SDS011;15787;49.662;10.162;2023-04-23T00:27:26;5.25;;;2.70;;
28587;SDS011;15787;49.662;10.162;2023-04-23T00:29:59;4.35;;;2.72;;
28587;SDS011;15787;49.662;10.162;2023-04-23T00:32:33;5.72;;;2.63;;
28587;SDS011;15787;49.662;10.162;2023-04-23T00:35:07;5.90;;;3.08;;
28587;SDS011;15787;49.662;10.162;2023-04-23T00:37:41;6.05;;;2.53;;
28587;SDS011;15787;49.662;10.162;2023-04-23T00:40:14;5.60;;;2.65;;
28587;SDS011;15787;49.662;10.162;2023-04-23T00:42:47;5.00;;;2.53;;
28587;SDS011;15787;49.662;10.162;2023-04-23T00:45:22;6.40;;;3.10;;
28587;SDS011;15787;49.662;10.162;2023-04-23T00:47:56;4.32;;;2.83;;
28587;SDS011;15787;49.662;10.162;2023-04-23T00:50:30;4.05;;;2.75;;
28587;SDS011;15787;49.662;10.162;2023-04-23T00:53:04;7.03;;;2.78;;
28587;SDS011;15787;49.662;10.162;2023-04-23T00:55:37;8.05;;;3.10;;
28587;SDS011;15787;49.662;10.162;2023-04-23T00:58:10;4.15;;;2.70;;
28587;SDS011;15787;49.662;10.162;2023-04-23T01:00:43;5.88;;;2.92;;
28587;SDS011;15787;49.662;10.162;2023-04-23T01:03:19;5.55;;;2.72;;
28587;SDS011;15787;49.662;10.162;2023-04-23T01:05:53;6.47;;;2.97;;
28587;SDS011;15787;49.662;10.162;2023-04-23T01:08:28;5.75;;;3.10;;
28587;SDS011;15787;49.662;10.162;2023-04-23T01:11:04;4.72;;;2.90;;
28587;SDS011;15787;49.662;10.162;2023-04-23T01:13:36;7.82;;;3.53;;
28587;SDS011;15787;49.662;10.162;2023-04-23T01:16:09;6.38;;;2.95;;
28587;SDS011;15787;49.662;10.162;2023-04-23T01:18:43;5.25;;;3.38;;
28587;SDS011;15787;49.662;10.162;2023-04-23T01:21:16;4.22;;;2.53;;
28587;SDS011;15787;49.662;10.162;2023-04-23T01:23:52;4.28;;;2.72;;
28587;SDS011;15787;49.662;10.162;2023-04-23T01:26:24;4.53;;;2.45;;
28587;SDS011;15787;49.662;10.162;2023-04-23T01:28:58;6.55;;;2.80;;
28587;SDS011;15787;49.662;10.162;2023-04-23T01:31:31;5.25;;;3.38;;
28587;SDS011;15787;49.662;10.162;2023-04-23T01:34:04;5.00;;;2.85;;
28587;SDS011;15787;49.662;10.162;2023-04-23T01:36:38;10.50;;;3.17;;
28587;SDS011;15787;49.662;10.162;2023-04-23T01:39:14;5.18;;;3.00;;
28587;SDS011;15787;49.662;10.162;2023-04-23T01:41:47;6.22;;;2.65;;
28587;SDS011;15787;49.662;10.162;2023-04-23T01:44:20;6.38;;;2.83;;
28587;SDS011;15787;49.662;10.162;2023-04-23T01:46:53;4.80;;;2.88;;
28587;SDS011;15787;49.662;10.162;2023-04-23T01:49:28;5.45;;;3.15;;
28587;SDS011;15787;49.662;10.162;2023-04-23T01:52:00;5.65;;;3.17;;
28587;SDS011;15787;49.662;10.162;2023-04-23T01:54:35;6.18;;;3.22;;
28587;SDS011;15787;49.662;10.162;2023-04-23T01:57:09;6.82;;;3.53;;
28587;SDS011;15787;49.662;10.162;2023-04-23T01:59:42;5.15;;;3.20;;
28587;SDS011;15787;49.662;10.162;2023-04-23T02:02:15;8.95;;;3.42;;
28587;SDS011;15787;49.662;10.162;2023-04-23T02:04:48;8.30;;;3.38;;
28587;SDS011;15787;49.662;10.162;2023-04-23T02:07:23;8.27;;;3.30;;
28587;SDS011;15787;49.662;10.162;2023-04-23T02:09:57;7.38;;;3.45;;
28587;SDS011;15787;49.662;10.162;2023-04-23T02:12:30;5.03;;;3.50;;
28587;SDS011;15787;49.662;10.162;2023-04-23T02:15:03;8.20;;;3.33;;
28587;SDS011;15787;49.662;10.162;2023-04-23T02:17:37;6.63;;;3.40;;
28587;SDS011;15787;49.662;10.162;2023-04-23T02:20:11;6.60;;;3.60;;
28587;SDS011;15787;49.662;10.162;2023-04-23T02:22:45;7.45;;;3.35;;
28587;SDS011;15787;49.662;10.162;2023-04-23T02:25:20;7.05;;;3.92;;
28587;SDS011;15787;49.662;10.162;2023-04-23T02:27:53;5.18;;;3.05;;
28587;SDS011;15787;49.662;10.162;2023-04-23T02:30:27;5.32;;;3.13;;
28587;SDS011;15787;49.662;10.162;2023-04-23T02:33:00;4.95;;;3.55;;
28587;SDS011;15787;49.662;10.162;2023-04-23T02:35:34;6.00;;;3.85;;
28587;SDS011;15787;49.662;10.162;2023-04-23T02:38:06;4.70;;;3.53;;
28587;SDS011;15787;49.662;10.162;2023-04-23T02:40:41;7.53;;;3.92;;
28587;SDS011;15787;49.662;10.162;2023-04-23T02:43:14;7.90;;;4.30;;
28587;SDS011;15787;49.662;10.162;2023-04-23T02:45:48;9.45;;;4.47;;
28587;SDS011;15787;49.662;10.162;2023-04-23T02:48:21;9.13;;;3.88;;
28587;SDS011;15787;49.662;10.162;2023-04-23T02:50:56;6.65;;;3.92;;
28587;SDS011;15787;49.662;10.162;2023-04-23T02:53:29;5.30;;;3.45;;
28587;SDS011;15787;49.662;10.162;2023-04-23T02:56:04;4.80;;;3.42;;
28587;SDS011;15787;49.662;10.162;2023-04-23T02:58:38;7.93;;;3.88;;
28587;SDS011;15787;49.662;10.162;2023-04-23T03:01:11;4.00;;;3.20;;
28587;SDS011;15787;49.662;10.162;2023-04-23T03:03:44;7.07;;;3.30;;
28587;SDS011;15787;49.662;10.162;2023-04-23T03:06:17;9.27;;;4.45;;
28587;SDS011;15787;49.662;10.162;2023-04-23T03:08:50;4.82;;;3.70;;
28587;SDS011;15787;49.662;10.162;2023-04-23T03:11:25;6.65;;;3.70;;
28587;SDS011;15787;49.662;10.162;2023-04-23T03:13:58;5.40;;;3.72;;
28587;SDS011;15787;49.662;10.162;2023-04-23T03:16:31;5.85;;;3.75;;
28587;SDS011;15787;49.662;10.162;2023-04-23T03:19:04;6.75;;;4.40;;
28587;SDS011;15787;49.662;10.162;2023-04-23T03:21:37;8.52;;;4.68;;
28587;SDS011;15787;49.662;10.162;2023-04-23T03:24:12;8.93;;;5.95;;
28587;SDS011;15787;49.662;10.162;2023-04-23T03:26:47;8.38;;;5.80;;
28587;SDS011;15787;49.662;10.162;2023-04-23T03:29:20;8.18;;;6.03;;
28587;SDS011;15787;49.662;10.162;2023-04-23T03:31:53;9.00;;;6.35;;
28587;SDS011;15787;49.662;10.162;2023-04-23T03:34:27;8.52;;;6.05;;
28587;SDS011;15787;49.662;10.162;2023-04-23T03:37:00;10.23;;;6.80;;
28587;SDS011;15787;49.662;10.162;2023-04-23T03:39:35;9.40;;;6.25;;
28587;SDS011;15787;49.662;10.162;2023-04-23T03:42:10;9.30;;;6.18;;
28587;SDS011;15787;49.662;10.162;2023-04-23T03:44:43;7.72;;;6.07;;
28587;SDS011;15787;49.662;10.162;2023-04-23T03:47:16;8.23;;;6.47;;
28587;SDS011;15787;49.662;10.162;2023-04-23T03:49:50;8.68;;;6.47;;
28587;SDS011;15787;49.662;10.162;2023-04-23T03:52:23;7.82;;;5.78;;
28587;SDS011;15787;49.662;10.162;2023-04-23T03:54:56;7.50;;;5.55;;
28587;SDS011;15787;49.662;10.162;2023-04-23T03:57:36;9.05;;;5.57;;
28587;SDS011;15787;49.662;10.162;2023-04-23T04:00:41;7.53;;;5.45;;
28587;SDS011;15787;49.662;10.162;2023-04-23T04:03:14;7.25;;;5.25;;
28587;SDS011;15787;49.662;10.162;2023-04-23T04:05:48;7.70;;;5.65;;
28587;SDS011;15787;49.662;10.162;2023-04-23T04:08:21;6.80;;;5.30;;
28587;SDS011;15787;49.662;10.162;2023-04-23T04:10:54;11.20;;;5.40;;
28587;SDS011;15787;49.662;10.162;2023-04-23T04:13:29;7.68;;;5.50;;
28587;SDS011;15787;49.662;10.162;2023-04-23T04:16:01;8.35;;;5.20;;
28587;SDS011;15787;49.662;10.162;2023-04-23T04:18:35;7.07;;;5.07;;
28587;SDS011;15787;49.662;10.162;2023-04-23T04:21:09;8.88;;;5.20;;
28587;SDS011;15787;49.662;10.162;2023-04-23T04:23:42;6.28;;;5.15;;
28587;SDS011;15787;49.662;10.162;2023-04-23T04:26:16;7.13;;;5.60;;
28587;SDS011;15787;49.662;10.162;2023-04-23T04:28:50;8.77;;;5.28;;
28587;SDS011;15787;49.662;10.162;2023-04-23T04:31:23;7.32;;;5.15;;
28587;SDS011;15787;49.662;10.162;2023-04-23T04:33:58;8.30;;;4.85;;
28587;SDS011;15787;49.662;10.162;2023-04-23T04:36:32;6.53;;;5.00;;
28587;SDS011;15787;49.662;10.162;2023-04-23T04:39:06;8.60;;;5.07;;
28587;SDS011;15787;49.662;10.162;2023-04-23T04:41:39;6.50;;;4.60;;
28587;SDS011;15787;49.662;10.162;2023-04-23T04:44:14;6.03;;;4.40;;
28587;SDS011;15787;49.662;10.162;2023-04-23T04:46:47;6.53;;;4.70;;
28587;SDS011;15787;49.662;10.162;2023-04-23T04:49:20;6.65;;;4.45;;
28587;SDS011;15787;49.662;10.162;2023-04-23T04:51:53;9.43;;;5.05;;
28587;SDS011;15787;49.662;10.162;2023-04-23T04:54:26;6.13;;;4.70;;
28587;SDS011;15787;49.662;10.162;2023-04-23T04:56:59;12.88;;;5.30;;
28587;SDS011;15787;49.662;10.162;2023-04-23T04:59:34;6.70;;;4.68;;
28587;SDS011;15787;49.662;10.162;2023-04-23T05:02:07;6.03;;;4.78;;
28587;SDS011;15787;49.662;10.162;2023-04-23T05:04:40;6.93;;;4.40;;
28587;SDS011;15787;49.662;10.162;2023-04-23T05:07:13;6.20;;;4.63;;
28587;SDS011;15787;49.662;10.162;2023-04-23T05:09:46;7.93;;;5.03;;
28587;SDS011;15787;49.662;10.162;2023-04-23T05:12:19;6.85;;;5.13;;
28587;SDS011;15787;49.662;10.162;2023-04-23T05:14:53;9.57;;;4.65;;
28587;SDS011;15787;49.662;10.162;2023-04-23T05:17:26;6.25;;;4.68;;
28587;SDS011;15787;49.662;10.162;2023-04-23T05:19:59;5.07;;;3.88;;
28587;SDS011;15787;49.662;10.162;2023-04-23T05:22:32;7.88;;;4.30;;
28587;SDS011;15787;49.662;10.162;2023-04-23T05:25:05;6.43;;;3.95;;
28587;SDS011;15787;49.662;10.162;2023-04-23T05:27:39;4.90;;;3.67;;
28587;SDS011;15787;49.662;10.162;2023-04-23T05:30:15;4.80;;;3.50;;
28587;SDS011;15787;49.662;10.162;2023-04-23T05:32:48;6.25;;;3.97;;
28587;SDS011;15787;49.662;10.162;2023-04-23T05:35:21;5.53;;;3.65;;
28587;SDS011;15787;49.662;10.162;2023-04-23T05:37:54;5.95;;;3.50;;
28587;SDS011;15787;49.662;10.162;2023-04-23T05:40:27;4.47;;;3.58;;
28587;SDS011;15787;49.662;10.162;2023-04-23T05:43:00;8.55;;;4.63;;
28587;SDS011;15787;49.662;10.162;2023-04-23T05:45:35;4.22;;;3.53;;
28587;SDS011;15787;49.662;10.162;2023-04-23T05:48:08;5.88;;;4.22;;
28587;SDS011;15787;49.662;10.162;2023-04-23T05:50:41;4.85;;;3.78;;
28587;SDS011;15787;49.662;10.162;2023-04-23T05:53:14;4.97;;;4.00;;
28587;SDS011;15787;49.662;10.162;2023-04-23T05:55:47;4.55;;;3.20;;
28587;SDS011;15787;49.662;10.162;2023-04-23T05:58:19;4.97;;;3.90;;
28587;SDS011;15787;49.662;10.162;2023-04-23T06:00:53;6.90;;;4.00;;
28587;SDS011;15787;49.662;10.162;2023-04-23T06:03:28;6.40;;;4.30;;
28587;SDS011;15787;49.662;10.162;2023-04-23T06:06:01;6.03;;;4.85;;
28587;SDS011;15787;49.662;10.162;2023-04-23T06:08:34;6.57;;;4.45;;
28587;SDS011;15787;49.662;10.162;2023-04-23T06:11:07;5.80;;;4.40;;
28587;SDS011;15787;49.662;10.162;2023-04-23T06:13:40;6.18;;;4.45;;
28587;SDS011;15787;49.662;10.162;2023-04-23T06:16:15;6.03;;;4.28;;
28587;SDS011;15787;49.662;10.162;2023-04-23T06:18:48;5.65;;;4.40;;
28587;SDS011;15787;49.662;10.162;2023-04-23T06:21:21;5.53;;;4.63;;
28587;SDS011;15787;49.662;10.162;2023-04-23T06:23:54;8.68;;;4.97;;
28587;SDS011;15787;49.662;10.162;2023-04-23T06:26:27;6.95;;;5.00;;
28587;SDS011;15787;49.662;10.162;2023-04-23T06:31:49;5.63;;;4.30;;
28587;SDS011;15787;49.662;10.162;2023-04-23T06:34:22;5.97;;;4.43;;
28587;SDS011;15787;49.662;10.162;2023-04-23T06:37:01;6.47;;;4.90;;
28587;SDS011;15787;49.662;10.162;2023-04-23T06:39:57;5.82;;;4.65;;
28587;SDS011;15787;49.662;10.162;2023-04-23T06:42:30;7.85;;;4.80;;
28587;SDS011;15787;49.662;10.162;2023-04-23T06:45:22;10.85;;;5.88;;
28587;SDS011;15787;49.662;10.162;2023-04-23T06:47:56;6.55;;;4.72;;
28587;SDS011;15787;49.662;10.162;2023-04-23T06:50:29;7.32;;;4.65;;
28587;SDS011;15787;49.662;10.162;2023-04-23T06:53:02;5.60;;;4.45;;
28587;SDS011;15787;49.662;10.162;2023-04-23T06:55:34;4.65;;;3.45;;
28587;SDS011;15787;49.662;10.162;2023-04-23T06:58:07;7.72;;;4.78;;
28587;SDS011;15787;49.662;10.162;2023-04-23T07:00:43;5.13;;;4.13;;
28587;SDS011;15787;49.662;10.162;2023-04-23T07:03:17;4.53;;;3.15;;
28587;SDS011;15787;49.662;10.162;2023-04-23T07:05:51;4.43;;;3.00;;
28587;SDS011;15787;49.662;10.162;2023-04-23T07:08:23;4.57;;;3.20;;
28587;SDS011;15787;49.662;10.162;2023-04-23T07:10:56;6.03;;;3.22;;
28587;SDS011;15787;49.662;10.162;2023-04-23T07:13:29;5.13;;;3.33;;
28587;SDS011;15787;49.662;10.162;2023-04-23T07:16:02;4.15;;;2.95;;
28587;SDS011;15787;49.662;10.162;2023-04-23T07:18:37;5.63;;;2.80;;
28587;SDS011;15787;49.662;10.162;2023-04-23T07:21:09;3.58;;;2.90;;
28587;SDS011;15787;49.662;10.162;2023-04-23T07:23:42;4.82;;;2.90;;
28587;SDS011;15787;49.662;10.162;2023-04-23T07:26:15;5.72;;;2.75;;
28587;SDS011;15787;49.662;10.162;2023-04-23T07:28:48;4.57;;;3.05;;
28587;SDS011;15787;49.662;10.162;2023-04-23T07:31:23;4.03;;;2.80;;
28587;SDS011;15787;49.662;10.162;2023-04-23T07:33:57;4.10;;;2.75;;
28587;SDS011;15787;49.662;10.162;2023-04-23T07:36:31;4.32;;;3.13;;
28587;SDS011;15787;49.662;10.162;2023-04-23T07:39:04;4.38;;;3.10;;
28587;SDS011;15787;49.662;10.162;2023-04-23T07:41:38;5.80;;;2.70;;
28587;SDS011;15787;49.662;10.162;2023-04-23T07:44:11;4.50;;;2.90;;
28587;SDS011;15787;49.662;10.162;2023-04-23T07:46:44;3.38;;;2.63;;
28587;SDS011;15787;49.662;10.162;2023-04-23T07:49:18;3.35;;;2.33;;
28587;SDS011;15787;49.662;10.162;2023-04-23T07:51:51;2.40;;;2.08;;
28587;SDS011;15787;49.662;10.162;2023-04-23T07:54:24;3.63;;;1.95;;
28587;SDS011;15787;49.662;10.162;2023-04-23T07:56:57;3.15;;;2.50;;
28587;SDS011;15787;49.662;10.162;2023-04-23T07:59:30;3.15;;;2.42;;
28587;SDS011;15787;49.662;10.162;2023-04-23T08:02:03;3.47;;;2.50;;
28587;SDS011;15787;49.662;10.162;2023-04-23T08:04:37;4.75;;;2.22;;
28587;SDS011;15787;49.662;10.162;2023-04-23T08:07:10;3.95;;;2.50;;
28587;SDS011;15787;49.662;10.162;2023-04-23T08:09:43;3.28;;;2.03;;
28587;SDS011;15787;49.662;10.162;2023-04-23T08:12:17;2.10;;;1.60;;
28587;SDS011;15787;49.662;10.162;2023-04-23T08:14:51;2.70;;;1.90;;
28587;SDS011;15787;49.662;10.162;2023-04-23T08:17:29;2.38;;;1.80;;
28587;SDS011;15787;49.662;10.162;2023-04-23T08:20:04;2.58;;;1.58;;
28587;SDS011;15787;49.662;10.162;2023-04-23T08:22:38;4.22;;;1.98;;
28587;SDS011;15787;49.662;10.162;2023-04-23T08:25:11;4.10;;;1.70;;
28587;SDS011;15787;49.662;10.162;2023-04-23T08:27:44;3.03;;;1.67;;
28587;SDS011;15787;49.662;10.162;2023-04-23T08:30:17;3.08;;;1.80;;
28587;SDS011;15787;49.662;10.162;2023-04-23T08:32:50;2.47;;;1.75;;
28587;SDS011;15787;49.662;10.162;2023-04-23T08:35:26;4.45;;;1.88;;
28587;SDS011;15787;49.662;10.162;2023-04-23T08:37:59;2.50;;;1.83;;
28587;SDS011;15787;49.662;10.162;2023-04-23T08:40:32;1.75;;;1.48;;
28587;SDS011;15787;49.662;10.162;2023-04-23T08:43:09;2.25;;;1.40;;
28587;SDS011;15787;49.662;10.162;2023-04-23T08:45:45;3.17;;;1.48;;
28587;SDS011;15787;49.662;10.162;2023-04-23T08:48:19;2.35;;;1.40;;
28587;SDS011;15787;49.662;10.162;2023-04-23T08:50:54;3.80;;;1.58;;
28587;SDS011;15787;49.662;10.162;2023-04-23T08:53:29;3.90;;;1.40;;
28587;SDS011;15787;49.662;10.162;2023-04-23T08:56:03;5.00;;;2.17;;
28587;SDS011;15787;49.662;10.162;2023-04-23T08:58:38;2.45;;;1.90;;
28587;SDS011;15787;49.662;10.162;2023-04-23T09:01:11;3.75;;;2.00;;
28587;SDS011;15787;49.662;10.162;2023-04-23T09:03:45;3.42;;;2.42;;
28587;SDS011;15787;49.662;10.162;2023-04-23T09:06:20;3.05;;;2.50;;
28587;SDS011;15787;49.662;10.162;2023-04-23T09:08:53;3.25;;;2.30;;
28587;SDS011;15787;49.662;10.162;2023-04-23T09:11:27;2.47;;;1.95;;
28587;SDS011;15787;49.662;10.162;2023-04-23T09:14:01;3.53;;;2.22;;
28587;SDS011;15787;49.662;10.162;2023-04-23T09:16:35;4.95;;;2.53;;
28587;SDS011;15787;49.662;10.162;2023-04-23T09:19:08;2.85;;;2.00;;
28587;SDS011;15787;49.662;10.162;2023-04-23T09:21:44;3.90;;;2.22;;
28587;SDS011;15787;49.662;10.162;2023-04-23T09:24:17;3.20;;;2.08;;
28587;SDS011;15787;49.662;10.162;2023-04-23T09:26:53;3.63;;;2.20;;
28587;SDS011;15787;49.662;10.162;2023-04-23T09:29:27;3.80;;;1.92;;
28587;SDS011;15787;49.662;10.162;2023-04-23T09:32:04;2.58;;;1.70;;
28587;SDS011;15787;49.662;10.162;2023-04-23T09:34:39;3.38;;;1.95;;
28587;SDS011;15787;49.662;10.162;2023-04-23T09:37:13;3.13;;;1.58;;
28587;SDS011;15787;49.662;10.162;2023-04-23T09:39:50;2.08;;;1.58;;
28587;SDS011;15787;49.662;10.162;2023-04-23T09:42:27;2.72;;;1.40;;
28587;SDS011;15787;49.662;10.162;2023-04-23T09:45:02;4.65;;;1.40;;
28587;SDS011;15787;49.662;10.162;2023-04-23T09:47:37;3.67;;;1.50;;
28587;SDS011;15787;49.662;10.162;2023-04-23T09:50:11;3.95;;;1.70;;
28587;SDS011;15787;49.662;10.162;2023-04-23T09:52:52;4.40;;;1.30;;
28587;SDS011;15787;49.662;10.162;2023-04-23T09:55:26;3.95;;;1.52;;
28587;SDS011;15787;49.662;10.162;2023-04-23T09:58:01;2.20;;;1.27;;
28587;SDS011;15787;49.662;10.162;2023-04-23T10:00:35;1.92;;;1.30;;
28587;SDS011;15787;49.662;10.162;2023-04-23T10:03:10;2.53;;;1.30;;
28587;SDS011;15787;49.662;10.162;2023-04-23T10:05:43;2.50;;;1.60;;
28587;SDS011;15787;49.662;10.162;2023-04-23T10:08:33;2.67;;;1.13;;
28587;SDS011;15787;49.662;10.162;2023-04-23T10:11:06;2.63;;;1.25;;
28587;SDS011;15787;49.662;10.162;2023-04-23T10:13:51;3.63;;;1.38;;
28587;SDS011;15787;49.662;10.162;2023-04-23T10:16:25;2.67;;;1.10;;
28587;SDS011;15787;49.662;10.162;2023-04-23T10:19:12;2.00;;;1.00;;
28587;SDS011;15787;49.662;10.162;2023-04-23T10:21:46;1.83;;;1.17;;
28587;SDS011;15787;49.662;10.162;2023-04-23T10:24:31;1.80;;;0.90;;
28587;SDS011;15787;49.662;10.162;2023-04-23T10:27:04;1.80;;;1.23;;
28587;SDS011;15787;49.662;10.162;2023-04-23T10:29:57;2.78;;;1.23;;
28587;SDS011;15787;49.662;10.162;2023-04-23T10:32:30;2.65;;;1.40;;
28587;SDS011;15787;49.662;10.162;2023-04-23T10:35:05;2.17;;;1.48;;
28587;SDS011;15787;49.662;10.162;2023-04-23T10:37:40;2.15;;;1.65;;
28587;SDS011;15787;49.662;10.162;2023-04-23T10:40:17;3.38;;;1.10;;
28587;SDS011;15787;49.662;10.162;2023-04-23T10:42:56;3.30;;;1.13;;
28587;SDS011;15787;49.662;10.162;2023-04-23T10:45:31;2.35;;;0.90;;
28587;SDS011;15787;49.662;10.162;2023-04-23T10:48:04;1.42;;;1.00;;
28587;SDS011;15787;49.662;10.162;2023-04-23T10:50:38;2.33;;;0.93;;
28587;SDS011;15787;49.662;10.162;2023-04-23T10:53:31;1.85;;;1.02;;
28587;SDS011;15787;49.662;10.162;2023-04-23T10:56:08;1.77;;;1.08;;
28587;SDS011;15787;49.662;10.162;2023-04-23T10:58:47;2.45;;;1.30;;
28587;SDS011;15787;49.662;10.162;2023-04-23T11:01:23;1.40;;;0.73;;
28587;SDS011;15787;49.662;10.162;2023-04-23T11:03:57;1.10;;;0.80;;
28587;SDS011;15787;49.662;10.162;2023-04-23T11:12:31;2.58;;;1.08;;
28587;SDS011;15787;49.662;10.162;2023-04-23T11:15:11;1.60;;;0.70;;
28587;SDS011;15787;49.662;10.162;2023-04-23T11:17:57;2.03;;;0.90;;
28587;SDS011;15787;49.662;10.162;2023-04-23T11:20:32;2.05;;;0.90;;
28587;SDS011;15787;49.662;10.162;2023-04-23T11:23:07;2.45;;;0.63;;
28587;SDS011;15787;49.662;10.162;2023-04-23T11:26:00;1.98;;;0.77;;
28587;SDS011;15787;49.662;10.162;2023-04-23T11:28:36;4.05;;;0.90;;
28587;SDS011;15787;49.662;10.162;2023-04-23T11:31:13;4.50;;;1.10;;
28587;SDS011;15787;49.662;10.162;2023-04-23T11:33:49;1.98;;;0.90;;
28587;SDS011;15787;49.662;10.162;2023-04-23T11:36:22;1.83;;;0.90;;
28587;SDS011;15787;49.662;10.162;2023-04-23T11:38:56;3.20;;;0.80;;
28587;SDS011;15787;49.662;10.162;2023-04-23T11:41:29;1.13;;;0.75;;
28587;SDS011;15787;49.662;10.162;2023-04-23T11:44:04;1.25;;;0.90;;
28587;SDS011;15787;49.662;10.162;2023-04-23T11:46:37;1.17;;;0.82;;
28587;SDS011;15787;49.662;10.162;2023-04-23T11:49:10;2.15;;;0.98;;
28587;SDS011;15787;49.662;10.162;2023-04-23T11:51:43;0.98;;;0.68;;
28587;SDS011;15787;49.662;10.162;2023-04-23T11:54:18;2.50;;;0.98;;
28587;SDS011;15787;49.662;10.162;2023-04-23T11:56:57;1.35;;;1.00;;
28587;SDS011;15787;49.662;10.162;2023-04-23T11:59:32;2.05;;;0.90;;
28587;SDS011;15787;49.662;10.162;2023-04-23T12:02:05;2.53;;;0.73;;
28587;SDS011;15787;49.662;10.162;2023-04-23T12:04:38;1.20;;;0.70;;
28587;SDS011;15787;49.662;10.162;2023-04-23T12:07:11;2.65;;;0.80;;
28587;SDS011;15787;49.662;10.162;2023-04-23T12:09:57;1.20;;;0.77;;
28587;SDS011;15787;49.662;10.162;2023-04-23T12:12:31;1.38;;;0.88;;
28587;SDS011;15787;49.662;10.162;2023-04-23T12:15:07;1.58;;;0.82;;
28587;SDS011;15787;49.662;10.162;2023-04-23T12:17:40;1.90;;;1.20;;
28587;SDS011;15787;49.662;10.162;2023-04-23T12:20:15;2.15;;;0.70;;
28587;SDS011;15787;49.662;10.162;2023-04-23T12:22:49;3.85;;;0.88;;
28587;SDS011;15787;49.662;10.162;2023-04-23T12:25:22;1.42;;;0.75;;
28587;SDS011;15787;49.662;10.162;2023-04-23T12:27:57;1.75;;;1.10;;
28587;SDS011;15787;49.662;10.162;2023-04-23T12:30:33;1.45;;;0.95;;
28587;SDS011;15787;49.662;10.162;2023-04-23T12:33:09;1.65;;;0.90;;
28587;SDS011;15787;49.662;10.162;2023-04-23T12:35:43;1.65;;;0.90;;
28587;SDS011;15787;49.662;10.162;2023-04-23T12:38:20;2.47;;;1.13;;
28587;SDS011;15787;49.662;10.162;2023-04-23T12:40:55;1.35;;;0.75;;
28587;SDS011;15787;49.662;10.162;2023-04-23T12:43:30;1.42;;;0.63;;
28587;SDS011;15787;49.662;10.162;2023-04-23T12:46:04;1.15;;;0.95;;
28587;SDS011;15787;49.662;10.162;2023-04-23T12:48:37;0.95;;;0.57;;
28587;SDS011;15787;49.662;10.162;2023-04-23T12:51:10;2.42;;;0.80;;
28587;SDS011;15787;49.662;10.162;2023-04-23T12:53:43;1.60;;;0.80;;
28587;SDS011;15787;49.662;10.162;2023-04-23T12:56:16;1.15;;;0.73;;
28587;SDS011;15787;49.662;10.162;2023-04-23T12:58:49;2.13;;;0.85;;
28587;SDS011;15787;49.662;10.162;2023-04-23T13:01:23;2.28;;;0.60;;
28587;SDS011;15787;49.662;10.162;2023-04-23T13:03:56;0.82;;;0.68;;
28587;SDS011;15787;49.662;10.162;2023-04-23T13:06:29;2.17;;;0.98;;
28587;SDS011;15787;49.662;10.162;2023-04-23T13:09:01;1.48;;;0.80;;
28587;SDS011;15787;49.662;10.162;2023-04-23T13:11:36;1.23;;;0.65;;
28587;SDS011;15787;49.662;10.162;2023-04-23T13:14:09;3.97;;;1.10;;
28587;SDS011;15787;49.662;10.162;2023-04-23T13:16:43;0.73;;;0.55;;
28587;SDS011;15787;49.662;10.162;2023-04-23T13:19:19;2.03;;;0.82;;
28587;SDS011;15787;49.662;10.162;2023-04-23T13:21:52;1.75;;;0.55;;
28587;SDS011;15787;49.662;10.162;2023-04-23T13:24:25;2.15;;;0.70;;
28587;SDS011;15787;49.662;10.162;2023-04-23T13:26:58;2.88;;;0.85;;
28587;SDS011;15787;49.662;10.162;2023-04-23T13:29:32;1.67;;;0.73;;
28587;SDS011;15787;49.662;10.162;2023-04-23T13:32:06;1.42;;;0.70;;
28587;SDS011;15787;49.662;10.162;2023-04-23T13:34:39;1.70;;;0.65;;
28587;SDS011;15787;49.662;10.162;2023-04-23T13:37:15;3.08;;;0.77;;
28587;SDS011;15787;49.662;10.162;2023-04-23T13:39:48;1.17;;;0.60;;
28587;SDS011;15787;49.662;10.162;2023-04-23T13:42:21;0.63;;;0.60;;
28587;SDS011;15787;49.662;10.162;2023-04-23T13:44:54;3.15;;;0.60;;
28587;SDS011;15787;49.662;10.162;2023-04-23T13:47:28;1.45;;;0.75;;
28587;SDS011;15787;49.662;10.162;2023-04-23T13:50:03;1.48;;;0.63;;
28587;SDS011;15787;49.662;10.162;2023-04-23T13:52:37;1.20;;;0.55;;
28587;SDS011;15787;49.662;10.162;2023-04-23T13:55:10;1.15;;;0.55;;
28587;SDS011;15787;49.662;10.162;2023-04-23T13:57:43;2.78;;;0.68;;
28587;SDS011;15787;49.662;10.162;2023-04-23T14:00:16;0.60;;;0.43;;
28587;SDS011;15787;49.662;10.162;2023-04-23T14:02:51;1.58;;;0.60;;
28587;SDS011;15787;49.662;10.162;2023-04-23T14:05:24;2.45;;;1.15;;
28587;SDS011;15787;49.662;10.162;2023-04-23T14:07:57;0.60;;;0.40;;
28587;SDS011;15787;49.662;10.162;2023-04-23T14:10:29;0.50;;;0.40;;
28587;SDS011;15787;49.662;10.162;2023-04-23T14:13:02;1.40;;;0.40;;
28587;SDS011;15787;49.662;10.162;2023-04-23T14:15:35;1.52;;;0.50;;
28587;SDS011;15787;49.662;10.162;2023-04-23T14:18:10;1.05;;;0.63;;
28587;SDS011;15787;49.662;10.162;2023-04-23T14:20:43;0.90;;;0.70;;
28587;SDS011;15787;49.662;10.162;2023-04-23T14:23:35;1.20;;;0.60;;
28587;SDS011;15787;49.662;10.162;2023-04-23T14:26:20;1.25;;;0.40;;
28587;SDS011;15787;49.662;10.162;2023-04-23T14:29:17;3.60;;;0.80;;
28587;SDS011;15787;49.662;10.162;2023-04-23T14:31:55;3.08;;;0.60;;
28587;SDS011;15787;49.662;10.162;2023-04-23T14:34:30;1.20;;;0.50;;
28587;SDS011;15787;49.662;10.162;2023-04-23T14:37:05;1.65;;;0.70;;
28587;SDS011;15787;49.662;10.162;2023-04-23T14:39:39;1.80;;;0.68;;
28587;SDS011;15787;49.662;10.162;2023-04-23T14:42:12;1.15;;;0.65;;
28587;SDS011;15787;49.662;10.162;2023-04-23T14:44:46;0.82;;;0.60;;
28587;SDS011;15787;49.662;10.162;2023-04-23T14:47:19;2.65;;;0.52;;
28587;SDS011;15787;49.662;10.162;2023-04-23T14:49:53;0.98;;;0.40;;
28587;SDS011;15787;49.662;10.162;2023-04-23T14:52:27;1.40;;;0.50;;
28587;SDS011;15787;49.662;10.162;2023-04-23T14:55:02;1.25;;;0.60;;
28587;SDS011;15787;49.662;10.162;2023-04-23T14:57:35;1.27;;;0.50;;
28587;SDS011;15787;49.662;10.162;2023-04-23T15:00:08;1.08;;;0.50;;
28587;SDS011;15787;49.662;10.162;2023-04-23T15:02:43;2.97;;;0.70;;
28587;SDS011;15787;49.662;10.162;2023-04-23T15:05:18;2.25;;;0.60;;
28587;SDS011;15787;49.662;10.162;2023-04-23T15:07:51;1.95;;;0.60;;
28587;SDS011;15787;49.662;10.162;2023-04-23T15:10:24;1.58;;;0.40;;
28587;SDS011;15787;49.662;10.162;2023-04-23T15:13:01;0.40;;;0.40;;
28587;SDS011;15787;49.662;10.162;2023-04-23T15:15:41;0.93;;;0.60;;
28587;SDS011;15787;49.662;10.162;2023-04-23T15:18:17;0.60;;;0.40;;
28587;SDS011;15787;49.662;10.162;2023-04-23T15:20:52;1.27;;;0.47;;
28587;SDS011;15787;49.662;10.162;2023-04-23T15:23:25;1.95;;;0.40;;
28587;SDS011;15787;49.662;10.162;2023-04-23T15:25:58;0.70;;;0.50;;